sensor_id;sensor_type;location;lat;lon;timestamp;pressure;altitude;pressure_sealevel;temperature;humidity
73594;BME280;64760;53.404;23.498;2023-01-20T00:01:25;98605.28;;;0.58;94.94
73594;BME280;64760;53.404;23.498;2023-01-20T00:03:53;98612.19;;;0.59;95.44
73594;BME280;64760;53.404;23.498;2023-01-20T00:06:21;98626.53;;;0.64;95.64
73594;BME280;64760;53.404;23.498;2023-01-20T00:08:52;98622.75;;;0.59;95.24
73594;BME280;64760;53.404;23.498;2023-01-20T00:11:19;98619.44;;;0.57;95.33
73594;BME280;64760;53.404;23.498;2023-01-20T00:13:47;98615.81;;;0.58;95.67
73594;BME280;64760;53.404;23.498;2023-01-20T00:16:13;98614.81;;;0.51;95.18
73594;BME280;64760;53.404;23.498;2023-01-20T00:18:44;98608.22;;;0.55;95.35
73594;BME280;64760;53.404;23.498;2023-01-20T00:21:13;98612.03;;;0.60;95.80
73594;BME280;64760;53.404;23.498;2023-01-20T00:23:42;98610.41;;;0.67;95.28
73594;BME280;64760;53.404;23.498;2023-01-20T00:26:12;98634.66;;;0.71;95.10
73594;BME280;64760;53.404;23.498;2023-01-20T00:28:39;98637.94;;;0.73;94.99
73594;BME280;64760;53.404;23.498;2023-01-20T00:31:17;98646.66;;;0.73;94.79
73594;BME280;64760;53.404;23.498;2023-01-20T00:33:45;98656.59;;;0.79;95.06
73594;BME280;64760;53.404;23.498;2023-01-20T00:36:16;98659.38;;;0.78;94.95
73594;BME280;64760;53.404;23.498;2023-01-20T00:38:44;98645.50;;;0.60;95.37
73594;BME280;64760;53.404;23.498;2023-01-20T00:41:15;98638.91;;;0.56;95.36
73594;BME280;64760;53.404;23.498;2023-01-20T00:43:41;98645.34;;;0.69;95.29
73594;BME280;64760;53.404;23.498;2023-01-20T00:46:08;98664.31;;;0.73;95.57
73594;BME280;64760;53.404;23.498;2023-01-20T00:48:35;98652.59;;;0.67;95.04
73594;BME280;64760;53.404;23.498;2023-01-20T00:51:05;98647.97;;;0.69;95.34
73594;BME280;64760;53.404;23.498;2023-01-20T00:53:31;98656.72;;;0.70;95.15
73594;BME280;64760;53.404;23.498;2023-01-20T00:55:59;98658.88;;;0.74;95.23
73594;BME280;64760;53.404;23.498;2023-01-20T00:58:25;98664.16;;;0.74;94.91
73594;BME280;64760;53.404;23.498;2023-01-20T01:00:53;98675.06;;;0.79;95.14
73594;BME280;64760;53.404;23.498;2023-01-20T01:03:20;98696.41;;;0.68;94.73
73594;BME280;64760;53.404;23.498;2023-01-20T01:05:47;98704.06;;;0.79;94.81
73594;BME280;64760;53.404;23.498;2023-01-20T01:08:14;98697.31;;;0.85;94.58
73594;BME280;64760;53.404;23.498;2023-01-20T01:10:41;98702.91;;;0.82;94.38
73594;BME280;64760;53.404;23.498;2023-01-20T01:13:08;98707.84;;;0.85;94.38
73594;BME280;64760;53.404;23.498;2023-01-20T01:15:36;98705.53;;;0.82;94.69
73594;BME280;64760;53.404;23.498;2023-01-20T01:18:03;98696.97;;;0.88;94.61
73594;BME280;64760;53.404;23.498;2023-01-20T01:20:30;98691.03;;;0.78;94.42
73594;BME280;64760;53.404;23.498;2023-01-20T01:22:56;98680.31;;;0.79;94.85
73594;BME280;64760;53.404;23.498;2023-01-20T01:28:46;98686.69;;;0.69;94.55
73594;BME280;64760;53.404;23.498;2023-01-20T01:31:15;98688.53;;;0.76;94.65
73594;BME280;64760;53.404;23.498;2023-01-20T01:33:41;98703.41;;;0.85;94.64
73594;BME280;64760;53.404;23.498;2023-01-20T01:36:15;98704.25;;;0.86;94.26
73594;BME280;64760;53.404;23.498;2023-01-20T01:38:42;98698.09;;;0.77;94.17
73594;BME280;64760;53.404;23.498;2023-01-20T01:41:12;98693.13;;;0.66;94.62
73594;BME280;64760;53.404;23.498;2023-01-20T01:43:57;98686.84;;;0.59;94.78
73594;BME280;64760;53.404;23.498;2023-01-20T01:46:25;98689.53;;;0.67;94.99
73594;BME280;64760;53.404;23.498;2023-01-20T01:48:51;98686.06;;;0.67;94.80
73594;BME280;64760;53.404;23.498;2023-01-20T01:51:23;98692.31;;;0.66;95.18
73594;BME280;64760;53.404;23.498;2023-01-20T01:54:01;98693.31;;;0.73;95.09
73594;BME280;64760;53.404;23.498;2023-01-20T01:56:30;98688.00;;;0.65;94.82
73594;BME280;64760;53.404;23.498;2023-01-20T01:59:00;98691.00;;;0.70;94.92
73594;BME280;64760;53.404;23.498;2023-01-20T02:01:28;98688.69;;;0.67;94.71
73594;BME280;64760;53.404;23.498;2023-01-20T02:04:10;98694.00;;;0.75;94.82
73594;BME280;64760;53.404;23.498;2023-01-20T02:06:40;98703.53;;;0.76;94.73
73594;BME280;64760;53.404;23.498;2023-01-20T02:09:07;98711.94;;;0.71;94.77
73594;BME280;64760;53.404;23.498;2023-01-20T02:11:42;98724.47;;;0.77;94.33
73594;BME280;64760;53.404;23.498;2023-01-20T02:14:18;98734.38;;;0.75;94.56
73594;BME280;64760;53.404;23.498;2023-01-20T02:23:42;98735.47;;;1.07;93.42
73594;BME280;64760;53.404;23.498;2023-01-20T02:28:35;98734.13;;;1.03;93.34
73594;BME280;64760;53.404;23.498;2023-01-20T02:31:25;98738.59;;;1.10;93.38
73594;BME280;64760;53.404;23.498;2023-01-20T02:36:46;98737.78;;;1.10;92.52
73594;BME280;64760;53.404;23.498;2023-01-20T02:44:52;98746.31;;;1.04;92.92
73594;BME280;64760;53.404;23.498;2023-01-20T02:47:34;98763.38;;;1.25;93.01
73594;BME280;64760;53.404;23.498;2023-01-20T02:50:08;98766.94;;;1.08;92.11
73594;BME280;64760;53.404;23.498;2023-01-20T02:52:44;98786.00;;;0.86;92.42
73594;BME280;64760;53.404;23.498;2023-01-20T02:55:23;98791.50;;;1.01;92.89
73594;BME280;64760;53.404;23.498;2023-01-20T02:57:56;98804.94;;;0.81;93.12
73594;BME280;64760;53.404;23.498;2023-01-20T03:00:29;98795.22;;;0.82;92.88
73594;BME280;64760;53.404;23.498;2023-01-20T03:03:01;98794.97;;;1.01;93.14
73594;BME280;64760;53.404;23.498;2023-01-20T03:24:36;98836.72;;;1.06;92.24
73594;BME280;64760;53.404;23.498;2023-01-20T03:27:03;98836.25;;;1.10;92.39
73594;BME280;64760;53.404;23.498;2023-01-20T03:29:30;98847.13;;;1.07;92.35
73594;BME280;64760;53.404;23.498;2023-01-20T03:31:59;98836.53;;;0.99;92.30
73594;BME280;64760;53.404;23.498;2023-01-20T03:34:29;98843.16;;;1.03;92.96
73594;BME280;64760;53.404;23.498;2023-01-20T03:36:57;98849.91;;;1.06;92.53
73594;BME280;64760;53.404;23.498;2023-01-20T03:39:26;98854.28;;;1.23;93.13
73594;BME280;64760;53.404;23.498;2023-01-20T03:47:15;98884.47;;;1.28;92.36
73594;BME280;64760;53.404;23.498;2023-01-20T03:55:01;98886.97;;;1.30;92.43
73594;BME280;64760;53.404;23.498;2023-01-20T03:57:55;98896.47;;;1.15;92.16
73594;BME280;64760;53.404;23.498;2023-01-20T04:00:34;98908.19;;;1.20;92.49
73594;BME280;64760;53.404;23.498;2023-01-20T04:03:06;98909.25;;;1.27;91.88
73594;BME280;64760;53.404;23.498;2023-01-20T04:05:34;98907.53;;;1.18;92.20
73594;BME280;64760;53.404;23.498;2023-01-20T04:08:05;98899.16;;;1.23;92.27
73594;BME280;64760;53.404;23.498;2023-01-20T04:10:34;98905.03;;;1.17;92.58
73594;BME280;64760;53.404;23.498;2023-01-20T04:13:03;98920.25;;;1.23;92.64
73594;BME280;64760;53.404;23.498;2023-01-20T04:15:36;98918.47;;;1.31;91.98
73594;BME280;64760;53.404;23.498;2023-01-20T04:18:18;98938.00;;;1.38;92.20
73594;BME280;64760;53.404;23.498;2023-01-20T04:20:50;98949.53;;;1.37;91.70
73594;BME280;64760;53.404;23.498;2023-01-20T04:23:26;98946.00;;;1.29;91.67
73594;BME280;64760;53.404;23.498;2023-01-20T04:25:55;98966.66;;;1.33;91.88
73594;BME280;64760;53.404;23.498;2023-01-20T04:28:21;98963.88;;;1.35;91.99
73594;BME280;64760;53.404;23.498;2023-01-20T04:30:48;98978.72;;;1.36;91.95
73594;BME280;64760;53.404;23.498;2023-01-20T04:33:15;98970.13;;;1.34;91.58
73594;BME280;64760;53.404;23.498;2023-01-20T04:35:42;98960.38;;;1.26;92.32
73594;BME280;64760;53.404;23.498;2023-01-20T04:38:08;98951.09;;;1.22;92.26
73594;BME280;64760;53.404;23.498;2023-01-20T04:40:35;98957.41;;;1.29;92.25
73594;BME280;64760;53.404;23.498;2023-01-20T04:43:01;98958.66;;;1.17;91.95
73594;BME280;64760;53.404;23.498;2023-01-20T04:45:28;98960.19;;;1.28;92.11
73594;BME280;64760;53.404;23.498;2023-01-20T04:47:54;98941.53;;;1.21;92.40
73594;BME280;64760;53.404;23.498;2023-01-20T04:50:20;98947.72;;;1.12;92.58
73594;BME280;64760;53.404;23.498;2023-01-20T04:52:47;98928.69;;;1.01;92.40
73594;BME280;64760;53.404;23.498;2023-01-20T04:55:13;98937.84;;;0.88;92.78
73594;BME280;64760;53.404;23.498;2023-01-20T04:57:40;98943.56;;;1.02;93.16
73594;BME280;64760;53.404;23.498;2023-01-20T05:00:06;98946.28;;;0.92;93.30
73594;BME280;64760;53.404;23.498;2023-01-20T05:02:33;98947.50;;;0.80;93.31
73594;BME280;64760;53.404;23.498;2023-01-20T05:04:59;98939.66;;;0.88;93.17
73594;BME280;64760;53.404;23.498;2023-01-20T05:07:26;98938.81;;;0.79;93.16
73594;BME280;64760;53.404;23.498;2023-01-20T05:09:52;98946.09;;;0.85;92.90
73594;BME280;64760;53.404;23.498;2023-01-20T05:12:19;98948.56;;;0.87;93.43
73594;BME280;64760;53.404;23.498;2023-01-20T05:14:45;98970.59;;;0.78;93.26
73594;BME280;64760;53.404;23.498;2023-01-20T05:17:12;98966.59;;;0.74;93.74
73594;BME280;64760;53.404;23.498;2023-01-20T05:19:38;98972.97;;;0.89;93.36
73594;BME280;64760;53.404;23.498;2023-01-20T05:22:05;98987.72;;;1.00;93.18
73594;BME280;64760;53.404;23.498;2023-01-20T05:24:32;98978.69;;;1.02;92.83
73594;BME280;64760;53.404;23.498;2023-01-20T05:26:59;98982.63;;;0.98;92.85
73594;BME280;64760;53.404;23.498;2023-01-20T05:29:29;99007.41;;;1.05;92.91
73594;BME280;64760;53.404;23.498;2023-01-20T05:31:58;99019.34;;;1.17;92.51
73594;BME280;64760;53.404;23.498;2023-01-20T05:34:28;99033.25;;;1.19;92.28
73594;BME280;64760;53.404;23.498;2023-01-20T05:37:00;99045.75;;;1.17;92.29
73594;BME280;64760;53.404;23.498;2023-01-20T05:39:27;99054.56;;;1.26;92.18
73594;BME280;64760;53.404;23.498;2023-01-20T05:41:54;99051.78;;;1.27;92.14
73594;BME280;64760;53.404;23.498;2023-01-20T05:44:20;99049.13;;;1.27;91.99
73594;BME280;64760;53.404;23.498;2023-01-20T05:46:46;99066.47;;;1.12;92.29
73594;BME280;64760;53.404;23.498;2023-01-20T05:49:13;99083.25;;;1.03;92.47
73594;BME280;64760;53.404;23.498;2023-01-20T05:51:39;99085.41;;;1.08;92.71
73594;BME280;64760;53.404;23.498;2023-01-20T05:54:05;99083.72;;;0.99;92.89
73594;BME280;64760;53.404;23.498;2023-01-20T05:56:32;99085.78;;;1.13;93.07
73594;BME280;64760;53.404;23.498;2023-01-20T05:58:58;99100.72;;;1.22;92.80
73594;BME280;64760;53.404;23.498;2023-01-20T06:01:25;99103.09;;;1.33;92.62
73594;BME280;64760;53.404;23.498;2023-01-20T06:03:51;99084.97;;;1.12;92.35
73594;BME280;64760;53.404;23.498;2023-01-20T06:06:17;99098.91;;;1.22;92.39
73594;BME280;64760;53.404;23.498;2023-01-20T06:08:44;99098.22;;;1.20;92.15
73594;BME280;64760;53.404;23.498;2023-01-20T06:11:11;99090.59;;;1.35;92.42
73594;BME280;64760;53.404;23.498;2023-01-20T06:13:39;99108.38;;;1.33;92.12
73594;BME280;64760;53.404;23.498;2023-01-20T06:16:05;99102.00;;;1.18;92.13
73594;BME280;64760;53.404;23.498;2023-01-20T06:18:32;99117.69;;;1.19;92.45
73594;BME280;64760;53.404;23.498;2023-01-20T06:20:59;99136.97;;;1.37;92.75
73594;BME280;64760;53.404;23.498;2023-01-20T06:23:26;99139.03;;;1.26;92.44
73594;BME280;64760;53.404;23.498;2023-01-20T06:26:07;99134.66;;;1.34;92.23
73594;BME280;64760;53.404;23.498;2023-01-20T06:28:34;99148.13;;;1.31;91.92
73594;BME280;64760;53.404;23.498;2023-01-20T06:31:03;99152.44;;;1.32;92.32
73594;BME280;64760;53.404;23.498;2023-01-20T06:33:30;99141.19;;;1.48;92.11
73594;BME280;64760;53.404;23.498;2023-01-20T06:35:57;99146.84;;;1.35;91.98
73594;BME280;64760;53.404;23.498;2023-01-20T06:38:25;99154.16;;;1.41;91.73
73594;BME280;64760;53.404;23.498;2023-01-20T06:41:00;99138.66;;;1.38;91.65
73594;BME280;64760;53.404;23.498;2023-01-20T06:43:30;99138.34;;;1.24;92.08
73594;BME280;64760;53.404;23.498;2023-01-20T06:46:00;99136.06;;;1.29;92.07
73594;BME280;64760;53.404;23.498;2023-01-20T06:48:27;99154.31;;;1.40;91.68
73594;BME280;64760;53.404;23.498;2023-01-20T06:51:03;99167.31;;;1.51;91.23
73594;BME280;64760;53.404;23.498;2023-01-20T06:53:29;99176.91;;;1.60;91.23
73594;BME280;64760;53.404;23.498;2023-01-20T06:56:00;99175.81;;;1.63;90.98
73594;BME280;64760;53.404;23.498;2023-01-20T06:58:29;99174.53;;;1.49;90.92
73594;BME280;64760;53.404;23.498;2023-01-20T07:00:57;99170.09;;;1.50;90.55
73594;BME280;64760;53.404;23.498;2023-01-20T07:03:23;99169.69;;;1.45;90.85
73594;BME280;64760;53.404;23.498;2023-01-20T07:05:59;99188.03;;;1.46;91.18
73594;BME280;64760;53.404;23.498;2023-01-20T07:08:42;99188.63;;;1.40;91.17
73594;BME280;64760;53.404;23.498;2023-01-20T07:11:11;99192.09;;;1.40;91.14
73594;BME280;64760;53.404;23.498;2023-01-20T07:13:37;99187.88;;;1.48;91.15
73594;BME280;64760;53.404;23.498;2023-01-20T07:16:04;99198.16;;;1.33;90.97
73594;BME280;64760;53.404;23.498;2023-01-20T07:18:30;99198.66;;;1.36;91.44
73594;BME280;64760;53.404;23.498;2023-01-20T07:20:57;99204.88;;;1.45;91.30
73594;BME280;64760;53.404;23.498;2023-01-20T07:23:23;99216.25;;;1.28;91.24
73594;BME280;64760;53.404;23.498;2023-01-20T07:26:01;99222.50;;;1.45;91.10
73594;BME280;64760;53.404;23.498;2023-01-20T07:28:29;99235.31;;;1.39;91.53
73594;BME280;64760;53.404;23.498;2023-01-20T07:31:05;99245.84;;;1.49;91.25
73594;BME280;64760;53.404;23.498;2023-01-20T07:33:32;99248.03;;;1.54;90.96
73594;BME280;64760;53.404;23.498;2023-01-20T07:35:59;99249.88;;;1.43;90.73
73594;BME280;64760;53.404;23.498;2023-01-20T07:38:26;99266.66;;;1.52;90.68
73594;BME280;64760;53.404;23.498;2023-01-20T07:40:57;99264.91;;;1.61;90.67
73594;BME280;64760;53.404;23.498;2023-01-20T07:43:23;99275.56;;;1.51;90.56
73594;BME280;64760;53.404;23.498;2023-01-20T07:45:56;99276.38;;;1.52;90.68
73594;BME280;64760;53.404;23.498;2023-01-20T07:48:23;99277.97;;;1.45;91.08
73594;BME280;64760;53.404;23.498;2023-01-20T07:50:58;99288.69;;;1.43;91.22
73594;BME280;64760;53.404;23.498;2023-01-20T07:53:31;99296.97;;;1.48;91.30
73594;BME280;64760;53.404;23.498;2023-01-20T07:56:04;99303.88;;;1.59;90.65
73594;BME280;64760;53.404;23.498;2023-01-20T07:58:32;99313.91;;;1.73;90.28
73594;BME280;64760;53.404;23.498;2023-01-20T08:01:10;99315.50;;;1.66;90.75
73594;BME280;64760;53.404;23.498;2023-01-20T08:03:38;99319.38;;;1.44;90.62
73594;BME280;64760;53.404;23.498;2023-01-20T08:06:07;99312.06;;;1.38;90.43
73594;BME280;64760;53.404;23.498;2023-01-20T08:08:34;99311.09;;;1.39;91.27
73594;BME280;64760;53.404;23.498;2023-01-20T08:11:01;99307.41;;;1.50;91.15
73594;BME280;64760;53.404;23.498;2023-01-20T08:13:28;99316.06;;;1.60;91.15
73594;BME280;64760;53.404;23.498;2023-01-20T08:15:58;99317.91;;;1.77;90.44
73594;BME280;64760;53.404;23.498;2023-01-20T08:18:25;99322.22;;;1.78;90.37
73594;BME280;64760;53.404;23.498;2023-01-20T08:20:51;99321.69;;;1.74;90.08
73594;BME280;64760;53.404;23.498;2023-01-20T08:23:18;99321.97;;;1.71;89.99
73594;BME280;64760;53.404;23.498;2023-01-20T08:25:46;99307.66;;;1.74;90.25
73594;BME280;64760;53.404;23.498;2023-01-20T08:28:12;99307.25;;;1.69;90.03
73594;BME280;64760;53.404;23.498;2023-01-20T08:30:39;99301.59;;;1.64;89.85
73594;BME280;64760;53.404;23.498;2023-01-20T08:33:05;99309.50;;;1.46;90.18
73594;BME280;64760;53.404;23.498;2023-01-20T08:35:34;99320.63;;;1.85;90.13
73594;BME280;64760;53.404;23.498;2023-01-20T08:38:01;99316.75;;;1.79;89.66
73594;BME280;64760;53.404;23.498;2023-01-20T08:40:28;99329.09;;;1.71;89.75
73594;BME280;64760;53.404;23.498;2023-01-20T08:42:54;99339.56;;;1.63;89.67
73594;BME280;64760;53.404;23.498;2023-01-20T08:45:21;99343.75;;;1.56;90.19
73594;BME280;64760;53.404;23.498;2023-01-20T08:47:48;99353.56;;;1.63;90.60
73594;BME280;64760;53.404;23.498;2023-01-20T08:50:15;99372.88;;;1.91;89.99
73594;BME280;64760;53.404;23.498;2023-01-20T08:52:41;99376.34;;;1.74;89.29
73594;BME280;64760;53.404;23.498;2023-01-20T08:55:09;99384.47;;;1.80;89.27
73594;BME280;64760;53.404;23.498;2023-01-20T08:57:35;99382.38;;;1.84;89.40
73594;BME280;64760;53.404;23.498;2023-01-20T09:00:04;99389.38;;;1.75;89.25
73594;BME280;64760;53.404;23.498;2023-01-20T09:02:31;99391.44;;;1.81;89.78
73594;BME280;64760;53.404;23.498;2023-01-20T09:04:57;99399.13;;;1.75;89.06
73594;BME280;64760;53.404;23.498;2023-01-20T09:07:23;99396.72;;;1.81;89.51
73594;BME280;64760;53.404;23.498;2023-01-20T09:09:50;99418.28;;;1.77;89.46
73594;BME280;64760;53.404;23.498;2023-01-20T09:12:16;99417.81;;;1.91;89.39
73594;BME280;64760;53.404;23.498;2023-01-20T09:14:43;99412.88;;;1.96;88.97
73594;BME280;64760;53.404;23.498;2023-01-20T09:17:10;99411.28;;;2.03;88.78
73594;BME280;64760;53.404;23.498;2023-01-20T09:19:36;99422.69;;;2.04;88.65
73594;BME280;64760;53.404;23.498;2023-01-20T09:22:03;99433.50;;;1.93;88.37
73594;BME280;64760;53.404;23.498;2023-01-20T09:24:29;99418.13;;;2.06;88.08
73594;BME280;64760;53.404;23.498;2023-01-20T09:26:55;99415.09;;;2.18;88.74
73594;BME280;64760;53.404;23.498;2023-01-20T09:29:22;99407.69;;;2.22;88.33
73594;BME280;64760;53.404;23.498;2023-01-20T09:34:17;99404.88;;;2.23;88.48
73594;BME280;64760;53.404;23.498;2023-01-20T09:36:56;99413.34;;;2.27;88.48
73594;BME280;64760;53.404;23.498;2023-01-20T09:39:23;99420.16;;;2.29;88.05
73594;BME280;64760;53.404;23.498;2023-01-20T09:42:35;99426.94;;;2.32;87.44
73594;BME280;64760;53.404;23.498;2023-01-20T09:45:28;99426.78;;;2.16;86.88
73594;BME280;64760;53.404;23.498;2023-01-20T09:51:23;99425.06;;;2.24;86.41
73594;BME280;64760;53.404;23.498;2023-01-20T09:54:23;99428.38;;;2.09;86.59
73594;BME280;64760;53.404;23.498;2023-01-20T09:56:53;99412.00;;;2.05;86.81
73594;BME280;64760;53.404;23.498;2023-01-20T09:59:29;99420.06;;;2.04;87.45
73594;BME280;64760;53.404;23.498;2023-01-20T10:01:59;99425.13;;;1.97;87.28
73594;BME280;64760;53.404;23.498;2023-01-20T10:04:46;99423.00;;;2.01;87.83
73594;BME280;64760;53.404;23.498;2023-01-20T10:09:51;99408.28;;;1.98;86.96
73594;BME280;64760;53.404;23.498;2023-01-20T10:12:39;99398.06;;;2.03;87.19
73594;BME280;64760;53.404;23.498;2023-01-20T10:15:11;99409.94;;;1.99;87.45
73594;BME280;64760;53.404;23.498;2023-01-20T10:17:52;99429.19;;;1.92;87.52
73594;BME280;64760;53.404;23.498;2023-01-20T10:20:26;99426.41;;;1.93;88.09
73594;BME280;64760;53.404;23.498;2023-01-20T10:28:19;99436.22;;;2.01;86.54
73594;BME280;64760;53.404;23.498;2023-01-20T10:30:47;99435.34;;;2.10;86.58
73594;BME280;64760;53.404;23.498;2023-01-20T10:33:22;99445.16;;;2.17;86.42
73594;BME280;64760;53.404;23.498;2023-01-20T10:35:53;99446.59;;;2.29;86.75
73594;BME280;64760;53.404;23.498;2023-01-20T10:38:34;99450.28;;;2.36;86.36
73594;BME280;64760;53.404;23.498;2023-01-20T10:41:12;99460.78;;;2.28;85.79
73594;BME280;64760;53.404;23.498;2023-01-20T10:43:41;99453.75;;;2.19;85.99
73594;BME280;64760;53.404;23.498;2023-01-20T10:46:16;99453.56;;;2.30;86.40
73594;BME280;64760;53.404;23.498;2023-01-20T10:57:34;99455.28;;;2.40;85.16
73594;BME280;64760;53.404;23.498;2023-01-20T11:00:04;99444.78;;;2.30;85.56
73594;BME280;64760;53.404;23.498;2023-01-20T11:02:34;99453.06;;;2.35;85.69
73594;BME280;64760;53.404;23.498;2023-01-20T11:05:15;99456.28;;;2.39;85.47
73594;BME280;64760;53.404;23.498;2023-01-20T11:07:43;99455.00;;;2.43;85.82
73594;BME280;64760;53.404;23.498;2023-01-20T11:12:42;99452.03;;;2.46;84.67
73594;BME280;64760;53.404;23.498;2023-01-20T11:15:23;99458.91;;;2.56;83.90
73594;BME280;64760;53.404;23.498;2023-01-20T11:21:04;99474.97;;;2.63;84.05
73594;BME280;64760;53.404;23.498;2023-01-20T11:23:47;99471.88;;;2.67;83.85
73594;BME280;64760;53.404;23.498;2023-01-20T11:26:27;99473.03;;;2.65;83.84
73594;BME280;64760;53.404;23.498;2023-01-20T11:29:01;99482.72;;;2.56;82.17
73594;BME280;64760;53.404;23.498;2023-01-20T11:31:50;99483.63;;;2.65;83.03
73594;BME280;64760;53.404;23.498;2023-01-20T11:34:31;99487.16;;;2.56;83.23
73594;BME280;64760;53.404;23.498;2023-01-20T11:39:38;99481.63;;;2.31;83.14
73594;BME280;64760;53.404;23.498;2023-01-20T11:42:15;99482.41;;;2.42;84.32
73594;BME280;64760;53.404;23.498;2023-01-20T11:44:47;99478.50;;;2.46;84.28
73594;BME280;64760;53.404;23.498;2023-01-20T11:47:22;99475.22;;;2.52;83.64
73594;BME280;64760;53.404;23.498;2023-01-20T11:52:38;99483.94;;;2.62;83.52
73594;BME280;64760;53.404;23.498;2023-01-20T11:55:11;99480.50;;;2.52;83.24
73594;BME280;64760;53.404;23.498;2023-01-20T11:57:43;99482.81;;;2.47;83.10
73594;BME280;64760;53.404;23.498;2023-01-20T12:08:44;99512.94;;;2.36;83.89
73594;BME280;64760;53.404;23.498;2023-01-20T12:11:16;99508.88;;;2.42;83.50
73594;BME280;64760;53.404;23.498;2023-01-20T12:13:53;99524.03;;;2.40;84.00
73594;BME280;64760;53.404;23.498;2023-01-20T12:17:19;99530.25;;;2.30;84.63
73594;BME280;64760;53.404;23.498;2023-01-20T12:20:26;99511.38;;;2.16;84.35
73594;BME280;64760;53.404;23.498;2023-01-20T12:25:41;99527.25;;;2.16;85.15
73594;BME280;64760;53.404;23.498;2023-01-20T12:28:15;99533.63;;;2.23;85.78
73594;BME280;64760;53.404;23.498;2023-01-20T12:31:00;99534.34;;;2.15;85.26
73594;BME280;64760;53.404;23.498;2023-01-20T12:33:36;99552.63;;;2.09;85.10
73594;BME280;64760;53.404;23.498;2023-01-20T12:53:06;99601.22;;;1.98;85.63
73594;BME280;64760;53.404;23.498;2023-01-20T13:12:59;99663.00;;;1.97;85.68
73594;BME280;64760;53.404;23.498;2023-01-20T13:15:48;99664.66;;;1.98;85.93
73594;BME280;64760;53.404;23.498;2023-01-20T13:21:21;99669.84;;;1.90;86.01
73594;BME280;64760;53.404;23.498;2023-01-20T13:23:48;99677.75;;;1.90;85.65
73594;BME280;64760;53.404;23.498;2023-01-20T13:26:17;99682.63;;;1.85;85.87
73594;BME280;64760;53.404;23.498;2023-01-20T13:28:51;99665.94;;;1.94;85.72
73594;BME280;64760;53.404;23.498;2023-01-20T13:41:55;99667.19;;;1.90;86.57
73594;BME280;64760;53.404;23.498;2023-01-20T13:44:38;99670.28;;;1.76;86.34
73594;BME280;64760;53.404;23.498;2023-01-20T13:47:07;99672.91;;;1.85;86.40
73594;BME280;64760;53.404;23.498;2023-01-20T13:49:48;99678.31;;;1.84;86.20
73594;BME280;64760;53.404;23.498;2023-01-20T13:55:48;99687.38;;;1.91;86.33
73594;BME280;64760;53.404;23.498;2023-01-20T14:00:43;99684.03;;;1.89;87.10
73594;BME280;64760;53.404;23.498;2023-01-20T14:03:37;99686.84;;;1.78;86.78
73594;BME280;64760;53.404;23.498;2023-01-20T14:06:05;99688.63;;;1.68;87.05
73594;BME280;64760;53.404;23.498;2023-01-20T14:11:18;99687.13;;;1.65;86.15
73594;BME280;64760;53.404;23.498;2023-01-20T14:13:55;99684.19;;;1.68;85.87
73594;BME280;64760;53.404;23.498;2023-01-20T14:16:25;99672.78;;;1.68;85.57
73594;BME280;64760;53.404;23.498;2023-01-20T14:18:54;99677.22;;;1.77;85.97
73594;BME280;64760;53.404;23.498;2023-01-20T14:21:23;99677.69;;;1.53;87.03
73594;BME280;64760;53.404;23.498;2023-01-20T14:23:51;99672.81;;;1.49;86.85
73594;BME280;64760;53.404;23.498;2023-01-20T14:26:23;99674.47;;;1.69;86.71
73594;BME280;64760;53.404;23.498;2023-01-20T14:28:56;99669.06;;;1.61;86.73
73594;BME280;64760;53.404;23.498;2023-01-20T14:31:32;99661.72;;;1.55;87.01
73594;BME280;64760;53.404;23.498;2023-01-20T14:34:28;99666.00;;;1.65;86.52
73594;BME280;64760;53.404;23.498;2023-01-20T14:36:58;99670.44;;;1.74;86.57
73594;BME280;64760;53.404;23.498;2023-01-20T14:39:28;99675.88;;;1.54;86.57
73594;BME280;64760;53.404;23.498;2023-01-20T14:42:00;99685.59;;;1.63;86.66
73594;BME280;64760;53.404;23.498;2023-01-20T14:44:29;99685.72;;;1.52;86.51
73594;BME280;64760;53.404;23.498;2023-01-20T14:47:00;99687.00;;;1.38;86.86
73594;BME280;64760;53.404;23.498;2023-01-20T14:49:31;99680.75;;;1.39;87.04
73594;BME280;64760;53.404;23.498;2023-01-20T14:51:58;99691.44;;;1.28;87.16
73594;BME280;64760;53.404;23.498;2023-01-20T14:54:33;99682.44;;;1.30;87.22
73594;BME280;64760;53.404;23.498;2023-01-20T14:57:30;99686.16;;;1.28;87.09
73594;BME280;64760;53.404;23.498;2023-01-20T15:02:42;99693.13;;;1.38;86.99
73594;BME280;64760;53.404;23.498;2023-01-20T15:05:26;99672.97;;;1.28;86.94
73594;BME280;64760;53.404;23.498;2023-01-20T15:10:37;99702.84;;;1.28;87.39
73594;BME280;64760;53.404;23.498;2023-01-20T15:13:20;99700.34;;;1.36;86.72
73594;BME280;64760;53.404;23.498;2023-01-20T15:15:47;99711.88;;;1.35;86.83
73594;BME280;64760;53.404;23.498;2023-01-20T15:18:17;99718.13;;;1.25;86.63
73594;BME280;64760;53.404;23.498;2023-01-20T15:20:54;99724.13;;;1.27;86.86
73594;BME280;64760;53.404;23.498;2023-01-20T15:23:31;99729.66;;;1.33;86.71
73594;BME280;64760;53.404;23.498;2023-01-20T15:26:22;99739.66;;;1.39;86.44
73594;BME280;64760;53.404;23.498;2023-01-20T15:28:49;99732.72;;;1.19;86.62
73594;BME280;64760;53.404;23.498;2023-01-20T15:31:16;99736.03;;;1.21;86.53
73594;BME280;64760;53.404;23.498;2023-01-20T15:33:44;99743.16;;;1.30;85.94
73594;BME280;64760;53.404;23.498;2023-01-20T15:36:31;99735.78;;;1.15;86.14
73594;BME280;64760;53.404;23.498;2023-01-20T15:39:11;99738.41;;;1.15;86.59
73594;BME280;64760;53.404;23.498;2023-01-20T15:41:39;99743.94;;;1.12;86.82
73594;BME280;64760;53.404;23.498;2023-01-20T15:44:05;99744.53;;;1.15;86.86
73594;BME280;64760;53.404;23.498;2023-01-20T15:46:32;99751.06;;;1.11;87.25
73594;BME280;64760;53.404;23.498;2023-01-20T15:48:59;99752.28;;;1.07;87.08
73594;BME280;64760;53.404;23.498;2023-01-20T15:51:26;99768.28;;;1.15;86.66
73594;BME280;64760;53.404;23.498;2023-01-20T15:57:02;99758.09;;;1.01;87.36
73594;BME280;64760;53.404;23.498;2023-01-20T15:59:49;99769.09;;;1.06;87.55
73594;BME280;64760;53.404;23.498;2023-01-20T16:02:22;99765.22;;;1.10;87.82